Time;durP1;ratioP1;P1;durP2;ratioP2;P2;SDS_P1;SDS_P2;PMS_P1;PMS_P2;Temp;Humidity;BMP_temperature;BMP_pressure;BME280_temperature;BME280_humidity;BME280_pressure;Samples;Min_cycle;Max_cycle;Signal;HPM_P1;HPM_P2
2023/03/20 00:00:27;;;;;;;10.83;3.33;;;8.60;86.30;;;;;;5026914;28;20586;-75
2023/03/20 00:02:55;;;;;;;12.93;4.05;;;8.60;86.30;;;;;;5012205;28;20058;-74
2023/03/20 00:05:23;;;;;;;7.63;2.60;;;8.50;86.20;;;;;;5028141;28;20132;-75
2023/03/20 00:07:50;;;;;;;9.38;3.60;;;8.50;86.20;;;;;;5019769;28;20133;-75
2023/03/20 00:10:18;;;;;;;11.55;3.65;;;8.50;86.40;;;;;;5027443;28;20060;-75
2023/03/20 00:12:47;;;;;;;10.73;3.50;;;8.50;86.40;;;;;;5026189;28;20120;-75
2023/03/20 00:15:28;;;;;;;13.80;5.07;;;8.50;86.50;;;;;;5028057;28;20125;-74
2023/03/20 00:17:55;;;;;;;11.88;4.00;;;8.50;86.50;;;;;;5027397;28;20042;-75
2023/03/20 00:20:23;;;;;;;13.60;4.28;;;8.50;86.60;;;;;;5044886;28;20504;-75
2023/03/20 00:22:50;;;;;;;11.73;4.03;;;8.50;86.40;;;;;;5024204;28;20706;-75
2023/03/20 00:25:20;;;;;;;12.57;4.80;;;8.40;86.50;;;;;;5029396;28;20085;-75
2023/03/20 00:27:47;;;;;;;14.02;4.70;;;8.50;86.50;;;;;;5012475;28;20054;-74
2023/03/20 00:30:25;;;;;;;13.50;4.82;;;8.50;86.60;;;;;;5009382;28;20074;-74
2023/03/20 00:32:56;;;;;;;13.95;4.78;;;8.50;86.60;;;;;;5026889;28;20480;-75
2023/03/20 00:35:28;;;;;;;13.82;4.88;;;8.40;86.60;;;;;;5006299;28;20092;-75
2023/03/20 00:37:56;;;;;;;14.83;4.80;;;8.50;86.60;;;;;;5019988;28;20050;-74
2023/03/20 00:40:27;;;;;;;12.57;5.28;;;8.50;86.60;;;;;;5019728;28;20133;-74
2023/03/20 00:42:58;;;;;;;13.02;4.60;;;8.50;86.70;;;;;;5011378;28;20046;-75
2023/03/20 00:45:27;;;;;;;16.02;5.35;;;8.50;86.60;;;;;;5023131;28;20097;-74
2023/03/20 00:47:56;;;;;;;15.10;4.55;;;8.50;86.60;;;;;;5027193;28;20125;-75
2023/03/20 00:50:25;;;;;;;15.47;4.97;;;8.50;86.70;;;;;;5027564;28;20053;-75
2023/03/20 00:52:53;;;;;;;15.60;5.28;;;8.50;86.60;;;;;;5012140;28;20062;-75
2023/03/20 00:55:23;;;;;;;13.15;5.03;;;8.50;86.60;;;;;;5026311;28;20573;-74
2023/03/20 00:57:53;;;;;;;12.40;4.88;;;8.50;86.70;;;;;;5000685;28;20124;-75
2023/03/20 01:00:29;;;;;;;11.27;4.57;;;8.50;86.70;;;;;;4991166;28;20051;-75
2023/03/20 01:02:58;;;;;;;15.57;4.53;;;8.60;86.30;;;;;;5006728;28;20052;-74
2023/03/20 01:05:27;;;;;;;13.48;3.95;;;8.50;86.30;;;;;;5028633;28;20050;-75
2023/03/20 01:07:55;;;;;;;11.75;4.25;;;8.60;86.30;;;;;;5027122;28;20428;-75
2023/03/20 01:10:27;;;;;;;13.40;4.07;;;8.60;86.00;;;;;;5010399;28;20800;-74
2023/03/20 01:13:02;;;;;;;16.35;4.45;;;8.50;86.00;;;;;;5009805;28;20052;-74
2023/03/20 01:15:33;;;;;;;14.93;5.20;;;8.50;86.00;;;;;;5027291;28;20049;-74
2023/03/20 01:18:01;;;;;;;11.95;4.30;;;8.50;86.00;;;;;;4992635;28;20176;-74
2023/03/20 01:20:30;;;;;;;15.73;4.28;;;8.60;85.90;;;;;;4994597;28;20053;-74
2023/03/20 01:22:57;;;;;;;13.27;3.78;;;8.60;85.80;;;;;;5015866;28;20062;-74
2023/03/20 01:25:24;;;;;;;8.27;3.75;;;8.50;85.70;;;;;;4991239;28;20133;-73
2023/03/20 01:27:53;;;;;;;10.63;3.60;;;8.60;85.70;;;;;;4990855;28;20620;-74
2023/03/20 01:30:22;;;;;;;9.95;3.78;;;8.60;85.60;;;;;;5019397;28;20093;-74
2023/03/20 01:32:50;;;;;;;11.13;3.85;;;8.60;85.50;;;;;;5046013;28;20053;-74
2023/03/20 01:35:21;;;;;;;12.68;4.65;;;8.50;85.50;;;;;;4998688;28;20166;-74
2023/03/20 01:37:50;;;;;;;13.32;3.88;;;8.60;85.40;;;;;;5023625;28;20334;-74
2023/03/20 01:40:40;;;;;;;12.33;4.10;;;8.60;85.20;;;;;;5005893;28;20061;-74
2023/03/20 01:43:13;;;;;;;9.38;3.75;;;8.50;85.20;;;;;;5012050;28;20053;-75
2023/03/20 01:45:48;;;;;;;11.07;3.20;;;8.50;85.20;;;;;;5009989;28;20519;-75
2023/03/20 01:48:18;;;;;;;10.65;4.10;;;8.50;85.10;;;;;;5033834;28;20045;-74
2023/03/20 01:50:47;;;;;;;11.18;4.72;;;8.50;85.00;;;;;;5013840;28;20045;-74
2023/03/20 01:53:20;;;;;;;11.03;4.07;;;8.50;85.10;;;;;;5007331;28;20096;-74
2023/03/20 01:55:58;;;;;;;15.50;5.60;;;8.50;85.10;;;;;;5029179;28;20050;-75
2023/03/20 01:58:35;;;;;;;12.07;5.00;;;8.50;85.10;;;;;;5010412;28;20136;-75
2023/03/20 02:01:03;;;;;;;15.75;5.00;;;8.50;85.10;;;;;;5013507;28;20057;-75
2023/03/20 02:03:31;;;;;;;15.30;6.00;;;8.50;85.10;;;;;;5008043;28;20054;-74
2023/03/20 02:06:25;;;;;;;13.40;5.03;;;8.50;85.20;;;;;;5021085;28;20058;-74
2023/03/20 02:09:15;;;;;;;18.50;5.90;;;8.50;85.00;;;;;;4998448;28;20112;-75
2023/03/20 02:11:46;;;;;;;10.98;5.03;;;8.50;85.00;;;;;;4993838;28;20046;-75
2023/03/20 02:14:14;;;;;;;16.58;6.50;;;8.50;85.00;;;;;;5024383;28;20050;-74
2023/03/20 02:16:54;;;;;;;15.27;6.63;;;8.50;84.90;;;;;;5029747;28;20056;-74
2023/03/20 02:19:43;;;;;;;14.70;5.47;;;8.50;84.80;;;;;;5012467;28;20038;-74
2023/03/20 02:22:30;;;;;;;13.38;6.03;;;8.50;84.80;;;;;;5030215;28;20045;-74
2023/03/20 02:25:27;;;;;;;15.38;5.60;;;8.50;84.80;;;;;;5029744;28;20049;-74
2023/03/20 02:28:18;;;;;;;14.23;5.43;;;8.50;85.00;;;;;;5029792;28;20077;-74
2023/03/20 02:31:11;;;;;;;16.10;5.75;;;8.50;85.00;;;;;;5012687;28;20495;-74
2023/03/20 02:34:08;;;;;;;14.30;5.40;;;8.50;85.00;;;;;;5009667;28;20074;-75
2023/03/20 02:37:09;;;;;;;15.73;6.18;;;8.50;84.90;;;;;;5007423;28;20721;-74
2023/03/20 02:39:49;;;;;;;14.55;5.13;;;8.60;85.00;;;;;;5014272;28;20104;-74
2023/03/20 02:42:24;;;;;;;14.20;6.05;;;8.60;84.90;;;;;;5013652;28;20073;-74
2023/03/20 02:45:03;;;;;;;15.52;4.70;;;8.60;84.80;;;;;;5021729;28;20427;-74
2023/03/20 02:47:37;;;;;;;19.00;6.70;;;8.50;84.80;;;;;;4993492;28;20054;-74
2023/03/20 02:50:17;;;;;;;19.05;5.57;;;8.50;84.80;;;;;;5009687;28;20539;-75
2023/03/20 02:52:49;;;;;;;15.43;5.95;;;8.50;84.70;;;;;;5012454;28;20042;-74
2023/03/20 02:55:39;;;;;;;17.33;6.80;;;8.50;84.70;;;;;;5002812;28;20496;-74
2023/03/20 02:58:14;;;;;;;13.63;6.30;;;8.50;84.70;;;;;;5019460;28;20534;-74
2023/03/20 03:00:47;;;;;;;16.23;6.50;;;8.50;84.70;;;;;;5022334;28;20133;-74
2023/03/20 03:03:19;;;;;;;17.35;8.00;;;8.50;84.60;;;;;;5009380;28;20532;-74
2023/03/20 03:05:54;;;;;;;17.45;7.05;;;8.50;84.70;;;;;;5007099;28;20054;-74
2023/03/20 03:08:24;;;;;;;16.90;6.80;;;8.50;84.60;;;;;;5031399;28;20099;-74
2023/03/20 03:10:58;;;;;;;16.42;6.65;;;8.50;84.60;;;;;;5020312;28;20064;-74
2023/03/20 03:13:28;;;;;;;16.67;5.93;;;8.50;84.60;;;;;;5010445;28;20058;-74
2023/03/20 03:16:03;;;;;;;17.45;6.13;;;8.50;84.50;;;;;;5021908;28;20046;-74
2023/03/20 03:18:34;;;;;;;16.50;7.15;;;8.50;84.50;;;;;;5023546;28;20290;-74
2023/03/20 03:21:04;;;;;;;19.00;7.47;;;8.50;84.50;;;;;;5005790;28;20162;-74
2023/03/20 03:23:36;;;;;;;15.43;6.63;;;8.60;84.50;;;;;;5012381;28;20479;-74
2023/03/20 03:26:07;;;;;;;16.63;6.60;;;8.50;84.30;;;;;;5011796;28;20168;-74
2023/03/20 03:28:39;;;;;;;16.42;7.03;;;8.50;84.30;;;;;;5012444;28;20555;-74
2023/03/20 03:31:08;;;;;;;17.38;6.82;;;8.50;84.30;;;;;;5011806;28;20629;-74
2023/03/20 03:33:39;;;;;;;18.77;7.03;;;8.50;84.20;;;;;;5043879;28;20540;-74
2023/03/20 03:36:13;;;;;;;14.48;6.95;;;8.60;84.10;;;;;;5019130;28;20050;-74
2023/03/20 03:38:48;;;;;;;14.73;5.97;;;8.60;84.10;;;;;;4992517;28;20528;-74
2023/03/20 03:41:24;;;;;;;16.20;6.20;;;8.50;83.90;;;;;;4992667;28;20050;-74
2023/03/20 03:43:57;;;;;;;12.30;5.70;;;8.50;83.70;;;;;;5008622;28;20180;-74
2023/03/20 03:46:29;;;;;;;12.80;6.13;;;8.50;83.50;;;;;;5026528;28;20655;-74
2023/03/20 03:48:58;;;;;;;15.15;5.82;;;8.60;83.30;;;;;;5011727;28;20129;-74
2023/03/20 03:51:29;;;;;;;13.83;5.73;;;8.50;83.20;;;;;;5029690;28;20125;-74
2023/03/20 03:54:06;;;;;;;13.75;5.70;;;8.50;83.00;;;;;;5031623;28;20053;-74
2023/03/20 03:56:37;;;;;;;14.50;5.40;;;8.50;83.00;;;;;;5009048;28;20054;-74
2023/03/20 03:59:10;;;;;;;14.50;5.38;;;8.50;82.70;;;;;;4994736;28;20564;-75
2023/03/20 04:01:42;;;;;;;13.77;4.93;;;8.50;82.50;;;;;;5011876;28;20551;-75
2023/03/20 04:04:12;;;;;;;12.53;5.03;;;8.50;82.50;;;;;;5011598;28;20516;-74
2023/03/20 04:06:41;;;;;;;13.07;5.13;;;8.50;82.50;;;;;;5005076;28;20571;-75
2023/03/20 04:09:08;;;;;;;14.57;4.85;;;8.50;82.30;;;;;;5015027;28;20264;-75
2023/03/20 04:11:37;;;;;;;12.00;5.18;;;8.50;82.10;;;;;;5011835;28;20048;-75
2023/03/20 04:14:04;;;;;;;12.77;4.93;;;8.50;82.00;;;;;;5006648;28;20054;-75
2023/03/20 04:16:31;;;;;;;12.90;4.73;;;8.50;81.80;;;;;;5011565;28;20080;-75
2023/03/20 04:18:58;;;;;;;11.57;4.28;;;8.50;81.80;;;;;;5027394;28;20137;-75
2023/03/20 04:21:25;;;;;;;10.98;4.70;;;8.50;81.60;;;;;;5028589;28;20124;-75
2023/03/20 04:23:52;;;;;;;10.93;4.60;;;8.50;81.60;;;;;;5009409;28;20042;-75
2023/03/20 04:26:22;;;;;;;9.77;4.25;;;8.50;81.40;;;;;;5007971;28;20532;-75
2023/03/20 04:28:51;;;;;;;9.73;4.03;;;8.50;81.10;;;;;;5027604;28;20053;-75
2023/03/20 04:31:21;;;;;;;10.48;4.32;;;8.50;81.10;;;;;;5028027;28;20045;-75
2023/03/20 04:33:56;;;;;;;10.07;3.95;;;8.50;81.10;;;;;;4995349;28;20049;-74
2023/03/20 04:36:41;;;;;;;11.75;4.55;;;8.40;81.00;;;;;;5009179;28;20061;-75
2023/03/20 04:39:11;;;;;;;10.40;4.10;;;8.50;80.90;;;;;;4991766;28;20054;-75
2023/03/20 04:41:38;;;;;;;9.73;4.27;;;8.40;80.80;;;;;;4991888;28;20076;-75
2023/03/20 04:44:06;;;;;;;11.40;4.20;;;8.40;80.60;;;;;;5009407;28;20046;-75
2023/03/20 04:46:35;;;;;;;9.73;4.20;;;8.40;80.50;;;;;;5011289;28;20057;-75
2023/03/20 04:49:06;;;;;;;12.55;4.35;;;8.40;80.50;;;;;;5010417;28;20053;-75
2023/03/20 04:51:33;;;;;;;10.40;3.78;;;8.40;80.50;;;;;;5027548;28;20132;-75
2023/03/20 04:54:00;;;;;;;12.67;4.67;;;8.40;80.40;;;;;;5010674;28;20050;-75
2023/03/20 04:56:27;;;;;;;13.27;4.55;;;8.40;80.50;;;;;;5011522;28;20042;-75
2023/03/20 04:59:07;;;;;;;13.82;5.18;;;8.40;80.60;;;;;;5010795;28;20582;-74
2023/03/20 05:01:34;;;;;;;12.45;4.72;;;8.40;80.60;;;;;;5027645;28;20085;-75
2023/03/20 05:04:01;;;;;;;10.82;4.10;;;8.40;80.60;;;;;;4999727;28;20521;-75
2023/03/20 05:06:32;;;;;;;10.67;4.47;;;8.40;80.60;;;;;;4991399;28;20137;-75
2023/03/20 05:09:00;;;;;;;11.55;4.50;;;8.40;80.60;;;;;;5034895;28;20053;-75
2023/03/20 05:11:29;;;;;;;11.55;4.53;;;8.40;80.70;;;;;;5030616;28;20176;-75
2023/03/20 05:14:07;;;;;;;13.52;4.53;;;8.40;80.70;;;;;;5015864;28;20687;-75
2023/03/20 05:16:48;;;;;;;12.40;4.95;;;8.30;80.90;;;;;;4991100;28;20052;-75
2023/03/20 05:19:34;;;;;;;12.60;4.90;;;8.30;80.90;;;;;;5046827;28;20049;-75
2023/03/20 05:22:24;;;;;;;15.13;5.93;;;8.30;81.00;;;;;;5041263;28;20050;-75
2023/03/20 05:25:06;;;;;;;16.90;6.20;;;8.30;80.90;;;;;;5022396;28;20086;-75
2023/03/20 05:27:48;;;;;;;13.40;5.10;;;8.30;80.90;;;;;;4994699;28;20137;-75
2023/03/20 05:30:43;;;;;;;14.32;5.63;;;8.30;80.90;;;;;;5022030;28;20367;-75
2023/03/20 05:33:26;;;;;;;14.37;6.50;;;8.30;81.00;;;;;;5018071;28;20543;-74
2023/03/20 05:36:13;;;;;;;13.90;5.93;;;8.30;80.90;;;;;;5026749;28;20050;-75
2023/03/20 05:39:04;;;;;;;14.20;6.10;;;8.30;80.80;;;;;;5015465;28;20871;-75
2023/03/20 05:41:51;;;;;;;15.50;6.43;;;8.30;80.80;;;;;;4987161;28;20061;-74
2023/03/20 05:44:37;;;;;;;14.52;6.22;;;8.30;80.90;;;;;;5020556;28;20694;-75
2023/03/20 05:47:23;;;;;;;14.70;6.47;;;8.30;80.70;;;;;;5012222;28;20050;-75
2023/03/20 05:50:20;;;;;;;14.23;6.55;;;8.30;80.70;;;;;;4959766;28;20048;-75
2023/03/20 05:52:54;;;;;;;16.35;6.47;;;8.20;80.80;;;;;;4993173;28;20050;-75
2023/03/20 05:55:45;;;;;;;15.02;6.88;;;8.20;80.80;;;;;;5016714;28;20053;-74
2023/03/20 05:58:35;;;;;;;13.60;6.20;;;8.20;80.80;;;;;;5020213;28;20507;-76
2023/03/20 06:01:21;;;;;;;17.40;7.80;;;8.20;80.50;;;;;;5025477;28;20049;-74
2023/03/20 06:04:05;;;;;;;15.00;6.13;;;8.20;80.50;;;;;;5025803;28;20049;-75
2023/03/20 06:06:51;;;;;;;16.02;6.88;;;8.20;80.30;;;;;;5009095;28;20136;-75
2023/03/20 06:09:18;;;;;;;13.98;6.47;;;8.20;80.10;;;;;;5009447;28;20626;-75
2023/03/20 06:11:45;;;;;;;17.48;7.13;;;8.20;80.10;;;;;;5018442;28;20054;-75
2023/03/20 06:14:16;;;;;;;17.40;7.37;;;8.20;80.10;;;;;;5001977;28;20792;-75
2023/03/20 06:16:47;;;;;;;16.10;6.82;;;8.20;80.10;;;;;;5024875;28;20088;-75
2023/03/20 06:19:16;;;;;;;16.60;6.95;;;8.20;80.00;;;;;;5009454;28;20528;-75
2023/03/20 06:21:43;;;;;;;13.52;6.13;;;8.20;80.10;;;;;;5011296;28;20065;-74
2023/03/20 06:24:14;;;;;;;16.60;7.05;;;8.20;80.10;;;;;;5009821;28;20065;-74
2023/03/20 06:26:42;;;;;;;17.03;6.90;;;8.20;80.00;;;;;;5022751;28;20054;-74
2023/03/20 06:29:11;;;;;;;14.98;6.25;;;8.20;80.10;;;;;;5027319;28;20046;-75
2023/03/20 06:31:38;;;;;;;16.48;6.93;;;8.20;80.10;;;;;;5025784;28;20559;-74
2023/03/20 06:34:08;;;;;;;14.93;6.72;;;8.20;80.00;;;;;;5027323;28;20580;-75
2023/03/20 06:36:41;;;;;;;17.83;7.32;;;8.20;79.90;;;;;;5013119;28;20042;-75
2023/03/20 06:39:15;;;;;;;14.80;6.80;;;8.20;79.70;;;;;;5012341;28;20575;-76
2023/03/20 06:41:42;;;;;;;13.30;6.03;;;8.20;79.80;;;;;;5029115;28;20077;-75
2023/03/20 06:44:11;;;;;;;15.38;7.20;;;8.20;79.90;;;;;;5017899;28;20057;-75
2023/03/20 06:47:01;;;;;;;15.35;5.93;;;8.20;79.70;;;;;;5030550;28;20096;-76
2023/03/20 06:49:28;;;;;;;15.27;6.97;;;8.20;79.70;;;;;;5029210;28;20595;-75
2023/03/20 06:51:58;;;;;;;15.33;6.63;;;8.20;79.70;;;;;;5000483;28;20064;-75
2023/03/20 06:54:25;;;;;;;16.50;6.80;;;8.20;79.50;;;;;;4996673;28;20049;-75
2023/03/20 06:56:53;;;;;;;15.40;6.05;;;8.20;79.30;;;;;;5012724;28;20144;-75
2023/03/20 06:59:21;;;;;;;16.92;6.88;;;8.20;79.40;;;;;;5012420;28;20130;-75
2023/03/20 07:01:51;;;;;;;15.68;5.95;;;8.20;79.60;;;;;;5025628;28;20157;-75
2023/03/20 07:04:18;;;;;;;12.93;6.37;;;8.20;79.50;;;;;;5036708;28;20064;-76
2023/03/20 07:06:50;;;;;;;13.15;6.10;;;8.20;79.60;;;;;;5048978;28;20069;-75
2023/03/20 07:09:20;;;;;;;14.80;6.40;;;8.30;79.50;;;;;;5015176;28;20046;-75
2023/03/20 07:11:48;;;;;;;13.60;6.75;;;8.30;79.30;;;;;;4993385;28;20055;-75
2023/03/20 07:14:16;;;;;;;15.20;6.20;;;8.30;79.10;;;;;;5010119;28;20453;-75
2023/03/20 07:16:56;;;;;;;13.33;6.03;;;8.30;78.70;;;;;;5009530;28;20584;-75
2023/03/20 07:19:24;;;;;;;14.52;6.57;;;8.30;78.80;;;;;;5001856;28;20132;-75
2023/03/20 07:22:01;;;;;;;16.30;6.53;;;8.30;78.90;;;;;;5034699;28;20057;-76
2023/03/20 07:24:33;;;;;;;17.73;7.30;;;8.30;78.70;;;;;;5029080;28;20049;-74
2023/03/20 07:27:00;;;;;;;16.48;6.97;;;8.30;78.80;;;;;;5011673;28;20112;-75
2023/03/20 07:29:28;;;;;;;17.23;6.87;;;8.30;78.70;;;;;;5011606;28;20126;-75
2023/03/20 07:31:59;;;;;;;15.20;6.45;;;8.30;78.60;;;;;;5005601;28;20042;-75
2023/03/20 07:34:30;;;;;;;15.93;6.88;;;8.30;78.50;;;;;;5005337;28;20050;-73
2023/03/20 07:36:59;;;;;;;16.27;6.75;;;8.30;78.40;;;;;;5022646;28;20046;-75
2023/03/20 07:39:27;;;;;;;18.23;6.55;;;8.40;78.40;;;;;;5051688;22;20053;-75
2023/03/20 07:42:18;;;;;;;16.23;6.37;;;8.40;78.20;;;;;;5038346;28;20061;-77
2023/03/20 07:44:52;;;;;;;15.38;6.68;;;8.40;78.20;;;;;;5025881;28;20078;-75
2023/03/20 07:47:19;;;;;;;13.95;6.20;;;8.40;78.20;;;;;;5027488;28;20136;-76
2023/03/20 07:49:46;;;;;;;17.25;6.53;;;8.40;78.00;;;;;;5044100;28;20050;-75
2023/03/20 07:52:14;;;;;;;15.05;6.25;;;8.40;78.00;;;;;;5041817;28;20655;-76
2023/03/20 07:54:41;;;;;;;15.50;6.87;;;8.40;78.20;;;;;;5025895;28;20141;-75
2023/03/20 07:57:08;;;;;;;16.17;6.78;;;8.40;78.30;;;;;;5048445;28;20133;-76
2023/03/20 07:59:36;;;;;;;15.48;6.75;;;8.50;77.80;;;;;;5048024;28;20053;-75
2023/03/20 08:02:04;;;;;;;14.05;6.32;;;8.50;77.80;;;;;;5048487;28;20049;-76
2023/03/20 08:04:31;;;;;;;14.55;5.80;;;8.50;77.40;;;;;;5040548;28;20140;-76
2023/03/20 08:06:58;;;;;;;13.60;6.80;;;8.50;77.50;;;;;;5045271;28;20185;-76
2023/03/20 08:09:25;;;;;;;13.65;5.45;;;8.50;77.20;;;;;;5044377;28;20132;-76
2023/03/20 08:11:53;;;;;;;16.58;6.80;;;8.50;77.50;;;;;;5043753;28;20075;-76
2023/03/20 08:14:20;;;;;;;16.75;7.28;;;8.50;77.50;;;;;;5043321;28;20187;-75
2023/03/20 08:16:48;;;;;;;15.95;7.30;;;8.60;77.20;;;;;;5042859;28;20052;-75
2023/03/20 08:19:15;;;;;;;18.03;6.40;;;8.60;77.00;;;;;;5044609;28;20053;-76
2023/03/20 08:21:42;;;;;;;18.55;6.35;;;8.60;77.10;;;;;;5045307;28;20132;-75
2023/03/20 08:24:09;;;;;;;16.08;6.50;;;8.60;77.30;;;;;;5047069;28;20061;-75
2023/03/20 08:26:37;;;;;;;15.35;6.45;;;8.60;77.10;;;;;;5044207;28;20054;-75
2023/03/20 08:29:05;;;;;;;19.17;7.53;;;8.60;77.00;;;;;;5042779;28;20127;-76
2023/03/20 08:31:32;;;;;;;13.57;6.70;;;8.60;76.80;;;;;;5044330;28;21012;-74
2023/03/20 08:34:00;;;;;;;12.95;6.00;;;8.70;76.70;;;;;;5047809;28;20090;-75
2023/03/20 08:36:28;;;;;;;15.00;6.50;;;8.70;76.20;;;;;;5039934;28;20128;-75
2023/03/20 08:38:55;;;;;;;16.88;6.78;;;8.80;76.00;;;;;;5039311;28;20084;-76
2023/03/20 08:41:21;;;;;;;14.55;6.70;;;8.80;76.30;;;;;;5032280;28;20108;-75
2023/03/20 08:43:48;;;;;;;15.87;7.20;;;8.80;76.50;;;;;;5034812;28;20137;-75
2023/03/20 08:46:15;;;;;;;17.05;7.30;;;8.80;76.60;;;;;;5038989;28;20081;-76
2023/03/20 08:48:42;;;;;;;14.85;7.03;;;8.90;76.00;;;;;;5041643;28;20774;-76
2023/03/20 08:51:11;;;;;;;16.25;7.18;;;9.00;75.50;;;;;;5057399;28;20092;-76
2023/03/20 08:53:37;;;;;;;13.32;7.20;;;9.00;75.20;;;;;;5042707;28;20135;-74
2023/03/20 08:56:05;;;;;;;15.03;6.63;;;9.00;75.30;;;;;;5027181;28;20212;-76
2023/03/20 08:58:32;;;;;;;13.80;7.13;;;9.00;75.50;;;;;;5045632;28;20498;-76
2023/03/20 09:01:04;;;;;;;15.05;6.88;;;9.00;75.90;;;;;;5023021;28;20054;-75
2023/03/20 09:03:31;;;;;;;15.02;7.07;;;9.10;75.40;;;;;;5038859;28;20053;-74
2023/03/20 09:05:58;;;;;;;17.50;7.55;;;9.20;74.90;;;;;;5026533;28;20049;-74
2023/03/20 09:08:26;;;;;;;15.23;6.97;;;9.20;75.50;;;;;;5044844;28;20053;-75
2023/03/20 09:10:53;;;;;;;14.73;6.75;;;9.20;75.30;;;;;;5041600;28;20053;-79
2023/03/20 09:13:22;;;;;;;16.63;7.70;;;9.20;74.90;;;;;;5037319;28;20559;-79
2023/03/20 09:15:49;;;;;;;14.43;6.95;;;9.20;74.80;;;;;;5025103;28;20051;-77
2023/03/20 09:18:15;;;;;;;15.82;7.78;;;9.30;74.30;;;;;;5027924;28;20041;-77
2023/03/20 09:20:43;;;;;;;16.70;7.83;;;9.30;74.70;;;;;;5040094;28;20523;-75
2023/03/20 09:23:10;;;;;;;13.43;7.10;;;9.40;74.60;;;;;;5025798;28;20137;-76
2023/03/20 09:25:38;;;;;;;13.35;7.32;;;9.40;74.60;;;;;;5047039;28;20045;-75
2023/03/20 09:28:05;;;;;;;15.73;7.43;;;9.40;74.40;;;;;;5048791;28;20099;-75
2023/03/20 09:30:32;;;;;;;13.65;6.43;;;9.40;74.10;;;;;;5048858;28;20053;-75
2023/03/20 09:32:59;;;;;;;15.57;7.10;;;9.50;74.00;;;;;;5041784;28;20085;-76
2023/03/20 09:35:26;;;;;;;13.80;6.95;;;9.50;73.70;;;;;;5041478;28;20219;-78
2023/03/20 09:37:53;;;;;;;14.00;6.35;;;9.60;72.90;;;;;;5042465;28;20549;-75
2023/03/20 09:40:25;;;;;;;13.68;6.60;;;9.60;72.50;;;;;;5046037;28;20377;-77
2023/03/20 09:43:01;;;;;;;12.90;4.97;;;9.70;72.70;;;;;;5029777;28;20042;-77
2023/03/20 09:45:40;;;;;;;14.47;6.60;;;9.70;72.70;;;;;;5039817;28;20523;-76
2023/03/20 09:48:15;;;;;;;14.52;6.22;;;9.70;73.20;;;;;;5036713;28;20096;-78
2023/03/20 09:50:53;;;;;;;11.98;5.95;;;9.70;73.20;;;;;;5018597;28;20045;-76
2023/03/20 09:53:26;;;;;;;14.20;7.07;;;9.80;72.70;;;;;;5041617;28;20064;-76
2023/03/20 09:55:55;;;;;;;13.48;6.82;;;9.90;72.20;;;;;;5044689;28;20121;-76
2023/03/20 09:58:26;;;;;;;14.33;6.03;;;10.00;72.00;;;;;;5040464;28;20069;-77
2023/03/20 10:00:58;;;;;;;14.93;7.38;;;10.00;71.60;;;;;;5029558;28;20100;-79
2023/03/20 10:03:28;;;;;;;10.52;5.22;;;10.00;71.70;;;;;;5049533;28;20515;-78
2023/03/20 10:06:00;;;;;;;11.07;4.97;;;10.00;71.50;;;;;;5046327;28;20093;-77
2023/03/20 10:08:30;;;;;;;12.43;5.22;;;10.00;71.90;;;;;;5041029;28;20053;-79
2023/03/20 10:11:14;;;;;;;16.87;6.67;;;10.00;72.60;;;;;;5023655;28;20053;-79
2023/03/20 10:14:01;;;;;;;14.93;7.78;;;10.00;73.00;;;;;;5043320;28;20574;-78
2023/03/20 10:16:45;;;;;;;14.23;6.60;;;10.00;73.10;;;;;;5045305;28;20050;-78
2023/03/20 10:19:21;;;;;;;12.98;5.55;;;10.00;73.40;;;;;;5046919;28;20321;-79
2023/03/20 10:21:52;;;;;;;10.20;4.68;;;10.10;73.30;;;;;;5045294;28;20053;-78
2023/03/20 10:24:26;;;;;;;11.20;6.10;;;10.10;72.90;;;;;;5044501;28;20067;-77
2023/03/20 10:26:55;;;;;;;16.02;8.20;;;10.10;72.80;;;;;;5046231;28;20053;-79
2023/03/20 10:29:32;;;;;;;16.00;8.38;;;10.10;72.90;;;;;;5026140;28;20054;-78
2023/03/20 10:32:06;;;;;;;15.98;7.97;;;10.10;72.80;;;;;;5049344;28;20100;-76
2023/03/20 10:34:48;;;;;;;16.25;8.82;;;10.10;72.80;;;;;;5047420;28;20447;-80
2023/03/20 10:37:36;;;;;;;14.07;8.03;;;10.10;73.60;;;;;;5042322;28;20063;-76
2023/03/20 10:40:22;;;;;;;17.95;8.38;;;10.00;73.00;;;;;;5047287;28;20666;-76
2023/03/20 10:42:52;;;;;;;14.30;7.50;;;10.00;73.00;;;;;;5046292;28;20127;-77
2023/03/20 10:45:29;;;;;;;14.23;7.72;;;10.00;72.80;;;;;;5046074;28;20211;-78
2023/03/20 10:47:59;;;;;;;17.77;8.98;;;10.00;73.20;;;;;;5041241;28;20586;-74
2023/03/20 10:50:31;;;;;;;12.50;6.13;;;10.00;73.30;;;;;;5048775;28;20053;-75
2023/03/20 10:53:00;;;;;;;14.98;8.05;;;10.00;73.10;;;;;;5031380;28;20140;-75
2023/03/20 10:55:30;;;;;;;16.27;8.48;;;10.00;73.00;;;;;;5044884;28;20522;-74
2023/03/20 10:58:03;;;;;;;14.23;7.20;;;10.00;73.20;;;;;;5047791;28;20135;-74
2023/03/20 11:00:32;;;;;;;14.07;6.50;;;10.00;73.00;;;;;;5044561;28;20151;-74
2023/03/20 11:02:59;;;;;;;14.57;6.50;;;10.00;73.20;;;;;;5039947;28;20526;-73
2023/03/20 11:05:31;;;;;;;14.30;6.97;;;9.90;73.80;;;;;;5040302;28;20054;-74
2023/03/20 11:08:04;;;;;;;16.25;7.93;;;9.90;73.80;;;;;;5044950;28;20080;-73
2023/03/20 11:10:33;;;;;;;15.13;7.65;;;10.00;73.40;;;;;;5040440;28;20100;-73
2023/03/20 11:13:14;;;;;;;15.25;7.53;;;9.90;73.10;;;;;;5040240;28;20053;-72
2023/03/20 11:15:42;;;;;;;12.70;7.00;;;9.90;73.00;;;;;;5038992;28;20049;-73
2023/03/20 11:18:12;;;;;;;12.80;6.80;;;9.80;72.90;;;;;;5040683;28;20080;-73
2023/03/20 11:20:46;;;;;;;12.80;6.88;;;9.80;72.80;;;;;;5041381;28;20602;-74
2023/03/20 11:23:17;;;;;;;13.00;6.72;;;9.80;73.10;;;;;;5048112;28;20132;-73
2023/03/20 11:25:51;;;;;;;13.55;6.88;;;9.80;73.00;;;;;;5049408;28;20054;-73
2023/03/20 11:28:26;;;;;;;11.50;6.30;;;9.80;73.20;;;;;;5048085;28;20534;-73
2023/03/20 11:31:00;;;;;;;11.35;6.00;;;9.80;73.70;;;;;;5051519;28;20507;-73
2023/03/20 11:33:29;;;;;;;12.43;5.50;;;9.80;73.40;;;;;;5068262;28;20568;-74
2023/03/20 11:35:58;;;;;;;12.63;5.55;;;9.80;73.50;;;;;;5047196;28;20049;-74
2023/03/20 11:38:25;;;;;;;14.15;7.07;;;9.80;73.80;;;;;;5048219;28;21114;-73
2023/03/20 11:40:52;;;;;;;14.03;6.90;;;9.80;74.20;;;;;;5041515;28;20053;-73
2023/03/20 11:43:22;;;;;;;13.38;6.13;;;9.80;74.10;;;;;;5044732;28;20515;-74
2023/03/20 11:45:54;;;;;;;12.52;6.53;;;9.80;74.10;;;;;;5041190;28;20133;-74
2023/03/20 11:48:24;;;;;;;13.38;6.28;;;9.80;74.30;;;;;;5042243;28;20080;-74
2023/03/20 11:51:03;;;;;;;15.35;6.40;;;9.80;74.10;;;;;;5037467;28;20152;-73
2023/03/20 11:53:34;;;;;;;13.60;5.80;;;9.80;74.30;;;;;;5040226;28;20097;-72
2023/03/20 11:56:10;;;;;;;13.73;5.53;;;9.80;74.10;;;;;;5041868;28;20056;-73
2023/03/20 11:58:46;;;;;;;12.48;5.05;;;9.80;74.10;;;;;;5043727;28;20053;-74
2023/03/20 12:01:14;;;;;;;10.30;4.07;;;9.80;74.10;;;;;;5024221;28;20148;-73
2023/03/20 12:03:45;;;;;;;8.63;3.78;;;9.80;73.70;;;;;;5037373;28;20059;-74
2023/03/20 12:06:18;;;;;;;14.20;4.00;;;9.80;73.70;;;;;;5038159;28;20050;-74
2023/03/20 12:08:51;;;;;;;8.02;4.10;;;9.80;73.60;;;;;;5044783;28;20057;-73
2023/03/20 12:11:38;;;;;;;12.57;4.75;;;9.80;73.90;;;;;;5044813;28;20307;-73
2023/03/20 12:14:12;;;;;;;11.05;4.63;;;9.80;74.10;;;;;;5043153;28;20136;-73
2023/03/20 12:16:41;;;;;;;10.75;4.32;;;9.70;74.60;;;;;;5043868;28;20064;-73
2023/03/20 12:19:16;;;;;;;10.53;4.73;;;9.80;75.00;;;;;;5047184;28;20570;-73
2023/03/20 12:21:50;;;;;;;12.50;3.85;;;9.80;75.30;;;;;;5045290;28;20053;-73
2023/03/20 12:24:26;;;;;;;9.60;4.35;;;9.80;75.50;;;;;;5041952;28;20049;-74
2023/03/20 12:27:00;;;;;;;9.82;3.03;;;9.70;75.90;;;;;;5044124;28;20049;-73
2023/03/20 12:29:31;;;;;;;12.05;3.72;;;9.70;76.50;;;;;;5054976;28;20057;-74
2023/03/20 12:32:02;;;;;;;8.73;4.10;;;9.70;76.20;;;;;;5041251;28;20053;-74
2023/03/20 12:34:34;;;;;;;9.80;3.88;;;9.60;76.20;;;;;;5038748;28;20163;-73
2023/03/20 12:37:01;;;;;;;11.00;3.90;;;9.60;76.00;;;;;;5043196;28;20562;-73
2023/03/20 12:39:33;;;;;;;11.18;4.15;;;9.60;75.70;;;;;;5045310;28;20145;-74
2023/03/20 12:42:11;;;;;;;7.55;3.90;;;9.60;75.90;;;;;;5044292;28;20929;-74
2023/03/20 12:44:44;;;;;;;5.90;1.90;;;9.70;75.60;;;;;;5044749;28;21021;-76
2023/03/20 12:47:28;;;;;;;7.10;2.75;;;9.70;75.40;;;;;;5043538;28;20507;-76
2023/03/20 12:50:07;;;;;;;9.77;4.07;;;9.70;75.60;;;;;;5042693;28;20140;-75
2023/03/20 12:52:45;;;;;;;11.15;3.53;;;9.70;76.00;;;;;;5041499;28;20056;-75
2023/03/20 12:55:25;;;;;;;8.85;3.63;;;9.60;76.10;;;;;;5042400;28;20050;-75
2023/03/20 12:58:11;;;;;;;11.83;4.20;;;9.60;76.40;;;;;;5043552;28;20058;-76
2023/03/20 13:00:44;;;;;;;8.07;3.80;;;9.60;77.00;;;;;;5041512;28;20046;-75
2023/03/20 13:03:27;;;;;;;10.27;3.60;;;9.60;77.30;;;;;;5038450;28;20072;-75
2023/03/20 13:06:05;;;;;;;10.30;4.05;;;9.60;77.60;;;;;;5038073;28;20140;-77
2023/03/20 13:08:46;;;;;;;10.07;3.80;;;9.60;77.60;;;;;;5040728;28;20054;-77
2023/03/20 13:11:21;;;;;;;7.67;3.30;;;9.60;77.90;;;;;;5044408;28;20060;-76
2023/03/20 13:13:53;;;;;;;11.23;4.25;;;9.60;78.60;;;;;;5042587;28;20524;-76